Atmospheric History
12/06/2017 18:28  to  12/7/2017 18:28
Change End Date:
To complete the export process:
1) Select all of the data below
2) Copy the data to the clipboard
3) Open a word processor such as Notepad
4) Paste the data into the word processor
5) Save the file

Date/Time (MST), AirTemp, RH, Dewpoint ,AvgWindSpeed, GustWindSpeed, WindDirection, PrecipType, PrecipIntensity, PrecipAccumulation, PrecipRate
12/07/2017 18:24, 36, 56, 22 ,21, 26, W, None, None, ,  
12/07/2017 18:21, 36, 56, 22 ,21, 25, W, None, None, ,  
12/07/2017 18:11, 36, 57, 22 ,21, 25, W, None, None, ,  
12/07/2017 18:09, 36, 56, 22 ,21, 27, W, None, None, ,  
12/07/2017 18:01, 36, 57, 22 ,22, 26, W, None, None, ,  
12/07/2017 17:54, 34, 60, 22 ,19, 24, W, None, None, ,  
12/07/2017 17:51, 35, 59, 22 ,18, 24, W, None, None, ,  
12/07/2017 17:41, 36, 57, 22 ,21, 27, W, None, None, ,  
12/07/2017 17:39, 36, 56, 22 ,22, 29, W, None, None, ,  
12/07/2017 17:30, 36, 57, 22 ,22, 31, W, None, None, ,  
12/07/2017 17:24, 37, 54, 22 ,26, 31, W, None, None, ,  
12/07/2017 17:20, 37, 55, 22 ,26, 30, W, None, None, ,  
12/07/2017 17:10, 37, 56, 23 ,22, 26, W, None, None, ,  
12/07/2017 17:09, 37, 57, 23 ,21, 25, W, None, None, ,  
12/07/2017 17:00, 37, 57, 23 ,21, 27, W, None, None, ,  
12/07/2017 16:53, 36, 59, 23 ,21, 26, W, None, None, ,  
12/07/2017 16:50, 36, 61, 23 ,19, 26, W, None, None, ,  
12/07/2017 16:40, 36, 61, 24 ,17, 21, W, None, None, ,  
12/07/2017 16:40, 35, 61, 24 ,17, 21, W, None, None, ,  
12/07/2017 16:30, 36, 60, 24 ,19, 25, W, None, None, ,  
12/07/2017 16:25, 36, 60, 24 ,20, 26, W, None, None, ,  
12/07/2017 16:20, 36, 59, 23 ,21, 26, W, None, None, ,  
12/07/2017 16:10, 36, 61, 24 ,21, 25, W, None, None, ,  
12/07/2017 16:09, 36, 61, 24 ,21, 25, W, None, None, ,  
12/07/2017 16:00, 35, 63, 24 ,17, 24, W, None, None, ,  
12/07/2017 15:54, 35, 64, 24 ,15, 21, SW, None, None, ,  
12/07/2017 15:50, 35, 64, 24 ,14, 21, SW, None, None, ,  
12/07/2017 15:40, 35, 63, 24 ,17, 22, SW, None, None, ,  
12/07/2017 15:39, 35, 63, 24 ,17, 22, SW, None, None, ,  
12/07/2017 15:30, 35, 63, 24 ,16, 19, SW, None, None, ,  
12/07/2017 15:24, 35, 63, 24 ,16, 22, SW, None, None, ,  
12/07/2017 15:20, 35, 63, 24 ,17, 22, SW, None, None, ,  
12/07/2017 15:10, 35, 62, 24 ,17, 21, W, None, None, ,  
12/07/2017 15:09, 35, 63, 24 ,17, 21, W, None, None, ,  
12/07/2017 15:00, 35, 64, 24 ,14, 20, W, None, None, ,  
12/07/2017 14:54, 35, 65, 24 ,16, 22, W, None, None, ,  
12/07/2017 14:49, 35, 66, 24 ,16, 22, W, None, None, ,  
12/07/2017 14:39, 35, 64, 24 ,16, 22, W, None, None, ,  
12/07/2017 14:39, 35, 64, 24 ,17, 21, W, None, None, ,  
12/07/2017 14:29, 35, 66, 24 ,17, 21, W, None, None, ,  
12/07/2017 14:24, 35, 66, 24 ,16, 21, W, None, None, ,  
12/07/2017 14:19, 34, 66, 24 ,16, 21, W, None, None, ,  
12/07/2017 14:09, 34, 66, 24 ,18, 22, W, None, None, ,  
12/07/2017 13:59, 34, 64, 24 ,20, 24, W, None, None, ,  
12/07/2017 13:55, 34, 65, 24 ,19, 25, W, None, None, ,  
12/07/2017 13:49, 34, 65, 24 ,19, 26, W, None, None, ,  
12/07/2017 13:39, 34, 65, 24 ,22, 27, W, None, None, ,  
12/07/2017 13:39, 34, 65, 24 ,22, 27, W, None, None, ,  
12/07/2017 13:29, 34, 66, 24 ,19, 27, W, None, None, ,  
12/07/2017 13:24, 34, 66, 24 ,21, 25, W, None, None, ,  
12/07/2017 13:19, 34, 65, 24 ,21, 25, W, None, None, ,  
12/07/2017 13:10, 34, 65, 23 ,21, 29, W, None, None, ,  
12/07/2017 13:09, 34, 64, 23 ,22, 29, W, None, None, ,  
12/07/2017 12:59, 34, 63, 23 ,24, 30, W, None, None, ,  
12/07/2017 12:54, 34, 62, 23 ,24, 30, W, None, None, ,  
12/07/2017 12:49, 34, 60, 22 ,24, 28, W, None, None, ,  
12/07/2017 12:39, 35, 59, 22 ,22, 27, W, None, None, ,  
12/07/2017 12:39, 35, 59, 22 ,22, 27, W, None, None, ,  
12/07/2017 12:29, 34, 60, 22 ,19, 23, W, None, None, ,  
12/07/2017 12:24, 34, 62, 22 ,17, 23, W, None, None, ,  
12/07/2017 12:18, 34, 62, 22 ,16, 24, W, None, None, ,  
12/07/2017 12:08, 34, 61, 22 ,17, 22, SW, None, None, ,  
12/07/2017 12:08, 34, 61, 22 ,17, 22, SW, None, None, ,  
12/07/2017 11:58, 32, 65, 22 ,13, 20, SW, None, None, ,  
12/07/2017 11:54, 32, 64, 21 ,16, 20, SW, None, None, ,  
12/07/2017 11:48, 32, 64, 21 ,16, 19, SW, None, None, ,  
12/07/2017 11:39, 32, 62, 20 ,16, 21, SW, None, None, ,  
12/07/2017 11:38, 32, 62, 20 ,16, 21, SW, None, None, ,  
12/07/2017 11:28, 33, 59, 20 ,16, 23, SW, None, None, ,  
12/07/2017 11:23, 33, 58, 20 ,17, 23, SW, None, None, ,  
12/07/2017 11:18, 33, 57, 19 ,20, 25, SW, None, None, ,  
12/07/2017 11:09, 32, 60, 20 ,16, 24, SW, None, None, ,  
12/07/2017 11:08, 32, 59, 19 ,16, 24, SW, None, None, ,  
12/07/2017 10:58, 31, 61, 19 ,17, 21, SW, None, None, ,  
12/07/2017 10:54, 30, 62, 19 ,15, 20, SW, None, None, ,  
12/07/2017 10:48, 29, 64, 19 ,16, 20, SW, None, None, ,  
12/07/2017 10:39, 28, 65, 18 ,17, 20, SW, None, None, ,  
12/07/2017 10:38, 28, 65, 18 ,17, 19, SW, None, None, ,  
12/07/2017 10:28, 28, 66, 18 ,16, 19, SW, None, None, ,  
12/07/2017 10:24, 28, 66, 18 ,16, 22, SW, None, None, ,  
12/07/2017 10:18, 28, 66, 18 ,16, 22, SW, None, None, ,  
12/07/2017 10:09, 28, 64, 18 ,17, 23, SW, None, None, ,  
12/07/2017 10:08, 28, 64, 17 ,18, 23, SW, None, None, ,  
12/07/2017 09:57, 28, 63, 17 ,17, 22, SW, None, None, ,  
12/07/2017 09:54, 28, 63, 17 ,17, 22, SW, None, None, ,  
12/07/2017 09:47, 28, 62, 17 ,17, 23, SW, None, None, ,  
12/07/2017 09:39, 27, 64, 16 ,17, 24, SW, None, None, ,  
12/07/2017 09:37, 27, 63, 16 ,17, 24, SW, None, None, ,  
12/07/2017 09:27, 27, 63, 16 ,17, 23, SW, None, None, ,  
12/07/2017 09:24, 26, 64, 16 ,17, 23, SW, None, None, ,  
12/07/2017 09:17, 26, 65, 16 ,17, 25, SW, None, None, ,  
12/07/2017 09:09, 26, 65, 15 ,21, 25, SW, None, None, ,  
12/07/2017 09:07, 26, 65, 16 ,17, 25, SW, None, None, ,  
12/07/2017 08:57, 25, 66, 16 ,16, 21, SW, None, None, ,  
12/07/2017 08:53, 25, 68, 16 ,14, 22, SW, None, None, ,  
12/07/2017 08:47, 24, 68, 15 ,15, 22, SW, None, None, ,  
12/07/2017 08:39, 23, 72, 16 ,11, 14, SW, None, None, ,  
12/07/2017 08:37, 23, 73, 16 ,11, 14, SW, None, None, ,  
12/07/2017 08:27, 23, 72, 15 ,10, 12, SW, None, None, ,  
12/07/2017 08:23, 23, 72, 15 ,9, 12, SW, None, None, ,  
12/07/2017 08:17, 22, 73, 15 ,7, 11, W, None, None, ,  
12/07/2017 08:09, 22, 76, 15 ,5, 8, W, None, None, ,  
12/07/2017 08:07, 22, 76, 16 ,3, 7, W, None, None, ,  
12/07/2017 07:57, 21, 77, 15 ,7, 10, W, None, None, ,  
12/07/2017 07:53, 21, 77, 15 ,7, 15, W, None, None, ,  
12/07/2017 07:47, 22, 76, 15 ,9, 15, SW, None, None, ,  
12/07/2017 07:38, 22, 76, 16 ,14, 19, SW, None, None, ,  
12/07/2017 07:37, 22, 77, 16 ,14, 19, SW, None, None, ,  
12/07/2017 07:27, 22, 78, 16 ,14, 18, SW, None, None, ,  
12/07/2017 07:23, 22, 78, 16 ,12, 16, SW, None, None, ,  
12/07/2017 07:17, 21, 79, 16 ,11, 15, SW, None, None, ,  
12/07/2017 07:09, 21, 78, 15 ,7, 17, W, None, None, ,  
12/07/2017 07:06, 21, 78, 15 ,9, 17, SW, None, None, ,  
12/07/2017 06:56, 20, 81, 15 ,12, 14, SW, None, None, ,  
12/07/2017 06:53, 20, 81, 15 ,12, 14, SW, None, None, ,  
12/07/2017 06:46, 19, 82, 15 ,9, 13, SW, None, None, ,  
12/07/2017 06:39, 18, 84, 14 ,11, 12, SW, None, None, ,  
12/07/2017 06:36, 18, 85, 14 ,9, 13, SW, None, None, ,  
12/07/2017 06:26, 17, 85, 14 ,11, 14, SW, None, None, ,  
12/07/2017 06:25, 17, 85, 13 ,9, 12, SW, None, None, ,  
12/07/2017 06:16, 16, 86, 13 ,11, 13, SW, None, None, ,  
12/07/2017 06:09, 16, 87, 13 ,9, 12, W, None, None, ,  
12/07/2017 06:06, 15, 86, 12 ,5, 11, W, None, None, ,  
12/07/2017 05:56, 15, 85, 12 ,8, 12, W, None, None, ,  
12/07/2017 05:54, 16, 85, 12 ,9, 16, W, None, None, ,  
12/07/2017 05:46, 16, 84, 12 ,13, 16, SW, None, None, ,  
12/07/2017 05:39, 17, 86, 13 ,14, 16, SW, None, None, ,  
12/07/2017 05:36, 17, 87, 13 ,12, 16, SW, None, None, ,  
12/07/2017 05:26, 15, 88, 12 ,11, 15, SW, None, None, ,  
12/07/2017 05:24, 15, 89, 12 ,11, 16, SW, None, None, ,  
12/07/2017 05:16, 15, 86, 12 ,14, 24, SW, None, None, ,  
12/07/2017 05:09, 14, 91, 12 ,17, 21, SW, None, None, ,  
12/07/2017 05:06, 14, 91, 12 ,16, 21, SW, None, None, ,  
12/07/2017 04:56, 12, 91, 10 ,11, 16, W, None, None, ,  
12/07/2017 04:54, 12, 91, 10 ,9, 13, W, None, None, ,  
12/07/2017 04:46, 12, 93, 11 ,9, 13, W, None, None, ,  
12/07/2017 04:39, 11, 93, 10 ,7, 10, W, None, None, ,  
12/07/2017 04:35, 11, 93, 10 ,8, 12, W, None, None, ,  
12/07/2017 04:25, 12, 93, 10 ,11, 16, SW, None, None, ,  
12/07/2017 04:24, 12, 93, 10 ,11, 16, SW, None, None, ,  
12/07/2017 04:15, 12, 94, 11 ,13, 16, SW, None, None, ,  
12/07/2017 04:09, 12, 95, 11 ,12, 16, SW, None, None, ,  
12/07/2017 04:05, 12, 95, 11 ,12, 17, SW, None, None, ,  
12/07/2017 03:55, 12, 95, 10 ,12, 16, W, None, None, ,  
12/07/2017 03:54, 12, 95, 11 ,10, 14, W, None, None, ,  
12/07/2017 03:45, 12, 96, 11 ,12, 14, SW, None, None, ,  
12/07/2017 03:39, 12, 95, 11 ,11, 12, SW, None, None, ,  
12/07/2017 03:35, 12, 94, 11 ,10, 13, SW, None, None, ,  
12/07/2017 03:25, 13, 95, 11 ,11, 13, SW, None, None, ,  
12/07/2017 03:24, 13, 95, 11 ,11, 13, SW, None, None, ,  
12/07/2017 03:15, 13, 95, 12 ,11, 15, SW, None, None, ,  
12/07/2017 03:09, 13, 95, 12 ,12, 14, SW, None, None, ,  
12/07/2017 03:05, 13, 95, 11 ,11, 12, SW, None, None, ,  
12/07/2017 02:55, 12, 95, 11 ,9, 11, SW, None, None, ,  
12/07/2017 02:54, 12, 94, 11 ,9, 11, SW, None, None, ,  
12/07/2017 02:45, 13, 95, 12 ,9, 12, SW, None, None, ,  
12/07/2017 02:39, 13, 95, 12 ,10, 13, SW, None, None, ,  
12/07/2017 02:35, 13, 94, 12 ,11, 16, SW, None, None, ,  
12/07/2017 02:25, 14, 94, 13 ,14, 17, SW, None, None, ,  
12/07/2017 02:23, 15, 94, 13 ,14, 17, SW, None, None, ,  
12/07/2017 02:15, 15, 94, 13 ,13, 16, W, None, None, ,  
12/07/2017 02:09, 15, 93, 13 ,13, 17, W, None, None, ,  
12/07/2017 02:05, 15, 94, 14 ,13, 17, W, None, None, ,  
12/07/2017 01:54, 15, 94, 13 ,11, 13, W, None, None, ,  
12/07/2017 01:54, 15, 93, 13 ,10, 12, W, None, None, ,  
12/07/2017 01:44, 16, 93, 14 ,11, 14, SW, None, None, ,  
12/07/2017 01:39, 17, 91, 14 ,10, 13, SW, None, None, ,  
12/07/2017 01:34, 17, 90, 15 ,9, 14, SW, None, None, ,  
12/07/2017 01:24, 18, 90, 16 ,11, 14, SW, None, None, ,  
12/07/2017 01:24, 18, 90, 16 ,11, 14, SW, None, None, ,  
12/07/2017 01:14, 19, 89, 16 ,12, 16, SW, None, None, ,  
12/07/2017 01:09, 19, 89, 16 ,12, 17, SW, None, None, ,  
12/07/2017 01:04, 19, 90, 16 ,14, 17, SW, None, None, ,  
12/07/2017 00:54, 19, 90, 16 ,13, 18, W, None, None, ,  
12/07/2017 00:54, 19, 90, 16 ,13, 18, W, None, None, ,  
12/07/2017 00:44, 18, 90, 16 ,12, 16, W, None, None, ,  
12/07/2017 00:39, 18, 91, 16 ,12, 17, W, None, None, ,  
12/07/2017 00:34, 18, 91, 16 ,14, 17, W, None, None, ,  
12/07/2017 00:24, 17, 91, 15 ,12, 16, W, None, None, ,  
12/07/2017 00:24, 17, 91, 15 ,12, 16, W, None, None, ,  
12/07/2017 00:14, 17, 92, 15 ,12, 14, W, None, None, ,  
12/07/2017 00:09, 16, 92, 14 ,12, 13, W, None, None, ,  
12/07/2017 00:04, 16, 92, 14 ,11, 12, W, None, None, ,  
12/06/2017 23:54, 15, 92, 13 ,11, 12, W, None, None, ,  
12/06/2017 23:54, 15, 92, 13 ,10, 12, W, None, None, ,  
12/06/2017 23:44, 15, 93, 14 ,11, 16, W, None, None, ,  
12/06/2017 23:39, 15, 94, 13 ,12, 16, W, None, None, ,  
12/06/2017 23:34, 15, 95, 13 ,12, 14, W, None, None, ,  
12/06/2017 23:24, 14, 95, 12 ,11, 14, W, None, None, ,  
12/06/2017 23:24, 13, 95, 12 ,11, 14, W, None, None, ,  
12/06/2017 23:13, 12, 97, 12 ,11, 13, W, None, None, ,  
12/06/2017 23:09, 12, 96, 11 ,9, 11, W, None, None, ,  
12/06/2017 23:03, 12, 95, 11 ,7, 11, W, None, None, ,  
12/06/2017 22:55, 13, 94, 11 ,10, 14, W, None, None, ,  
12/06/2017 22:53, 13, 94, 11 ,11, 14, W, None, None, ,  
12/06/2017 22:43, 13, 91, 11 ,12, 13, W, None, None, ,  
12/06/2017 22:39, 14, 91, 11 ,11, 14, W, None, None, ,  
12/06/2017 22:33, 15, 90, 12 ,12, 14, W, None, None, ,  
12/06/2017 22:24, 15, 89, 12 ,13, 16, W, None, None, ,  
12/06/2017 22:23, 15, 89, 12 ,13, 16, W, None, None, ,  
12/06/2017 22:13, 16, 89, 13 ,12, 14, W, None, None, ,  
12/06/2017 22:10, 16, 89, 13 ,12, 14, W, None, None, ,  
12/06/2017 22:03, 16, 89, 13 ,12, 17, W, None, None, ,  
12/06/2017 21:54, 16, 89, 13 ,14, 17, W, None, None, ,  
12/06/2017 21:53, 16, 89, 13 ,14, 17, W, None, None, ,  
12/06/2017 21:43, 15, 90, 13 ,14, 17, W, None, None, ,  
12/06/2017 21:39, 15, 90, 13 ,16, 17, W, None, None, ,  
12/06/2017 21:33, 15, 92, 13 ,15, 17, W, None, None, ,  
12/06/2017 21:24, 15, 90, 12 ,14, 17, W, None, None, ,  
12/06/2017 21:23, 15, 90, 12 ,14, 17, W, None, None, ,  
12/06/2017 21:13, 15, 90, 12 ,13, 15, W, None, None, ,  
12/06/2017 21:09, 15, 90, 13 ,13, 15, W, None, None, ,  
12/06/2017 21:03, 15, 89, 13 ,12, 15, W, None, None, ,  
12/06/2017 20:54, 16, 89, 13 ,12, 14, W, None, None, ,  
12/06/2017 20:53, 16, 89, 13 ,12, 14, W, None, None, ,  
12/06/2017 20:43, 16, 88, 13 ,14, 17, W, None, None, ,  
12/06/2017 20:40, 16, 89, 13 ,12, 16, W, None, None, ,  
12/06/2017 20:33, 16, 90, 14 ,13, 15, W, None, None, ,  
12/06/2017 20:25, 16, 90, 14 ,12, 15, W, None, None, ,  
12/06/2017 20:22, 16, 90, 14 ,12, 16, W, None, None, ,  
12/06/2017 20:12, 16, 90, 14 ,13, 16, W, None, None, ,  
12/06/2017 20:09, 16, 91, 14 ,12, 15, W, None, None, ,  
12/06/2017 20:02, 16, 91, 14 ,12, 17, W, None, None, ,  
12/06/2017 19:53, 16, 90, 14 ,13, 17, W, None, None, ,  
12/06/2017 19:52, 16, 90, 14 ,13, 17, W, None, None, ,  
12/06/2017 19:42, 16, 90, 14 ,14, 19, W, None, None, ,  
12/06/2017 19:38, 16, 89, 14 ,15, 19, W, None, None, ,  
12/06/2017 19:32, 17, 89, 14 ,14, 18, W, None, None, ,  
12/06/2017 19:24, 17, 88, 13 ,12, 17, W, None, None, ,  
12/06/2017 19:22, 16, 88, 13 ,12, 17, W, None, None, ,  
12/06/2017 19:12, 16, 88, 13 ,13, 17, W, None, None, ,  
12/06/2017 19:09, 16, 89, 13 ,13, 17, W, None, None, ,  
12/06/2017 19:02, 16, 88, 13 ,13, 19, W, None, None, ,  
12/06/2017 18:54, 15, 89, 13 ,12, 17, W, None, None, ,  
12/06/2017 18:52, 15, 89, 13 ,12, 17, W, None, None, ,  
12/06/2017 18:42, 15, 89, 13 ,13, 17, W, None, None, ,  
12/06/2017 18:39, 15, 90, 13 ,12, 14, W, None, None, ,  
12/06/2017 18:32, 15, 88, 12 ,10, 16, W, None, None, ,  
Change End Date:

Copyright © 1998-2015 Vaisala, Inc.
All Rights Reserved
Send comments about the data to:
SCAN Web ® is a registered trademark of Vaisala, Inc.
SCAN Web Version 6.0